Republic Airport Farmingdale US
ICAO: KFRG
IATA: FRG
Category: Medium
Scheduled Services: No

Elevation: 82 ft
TransAlt. 18000 ft.

Airport Communications:
NEW YORK APP:118.4
ATIS:126.65
CLNC DEL:128.25
CTAF:118.8
NEW YORK DEP:123.7
GND:121.6
:111.9
TWR:118.8
UNICOM:122.95

KFRG Zoom In..

Runways:

(A) RW 01 length 5516 ft width 150 ft
---- / hdg 13

(B) RW 14 length 6833 ft width 150 ft
ILS 111.90 / hdg 146

(C) RW 19 length 5516 ft width 150 ft
---- / hdg 193

(D) RW 32 length 6833 ft width 150 ft
---- / hdg 326

Location; KFRG
Day. 23 / Time. 15.31 Zulu
* Altimeter: 29.70
* Temperature: 11° c. 51.8°f.
* Wind from: 190° Speed 12 kn with Gusts up to 19 kn.
Dewpoint: 11° c.
Visibility: 3/4 Statute Miles.
Clouds: Overcast 200 ft.
Conditions: Light Rain.Conditions: Mist.

KFRG 231531Z 19012G19KT 3/4SM -RA BR OVC002 11/11 A2970 RMK AO2 PK WND 18027/1459 SFC VIS 2 LTG DSNT SW PRESFR P0001 T01060106


Wind From 190°
Speed 12 kn.

YouTube Music Video
 
jpsmedia.com for Web Design  worldairports.se 2018   terms of use